sensor_id;sensor_type;location;lat;lon;timestamp;temperature;humidity
11650;DHT22;5881;48.522;7.682;2023-03-12T00:02:16;0.80;1.00
11650;DHT22;5881;48.522;7.682;2023-03-12T00:04:42;0.70;1.00
11650;DHT22;5881;48.522;7.682;2023-03-12T00:07:08;0.60;1.00
11650;DHT22;5881;48.522;7.682;2023-03-12T00:09:35;0.50;1.00
11650;DHT22;5881;48.522;7.682;2023-03-12T00:12:02;0.50;1.00
11650;DHT22;5881;48.522;7.682;2023-03-12T00:14:27;0.40;1.00
11650;DHT22;5881;48.522;7.682;2023-03-12T00:16:53;0.50;1.00
11650;DHT22;5881;48.522;7.682;2023-03-12T00:19:20;0.70;1.00
11650;DHT22;5881;48.522;7.682;2023-03-12T00:21:46;0.70;1.00
11650;DHT22;5881;48.522;7.682;2023-03-12T00:24:11;0.70;1.00
11650;DHT22;5881;48.522;7.682;2023-03-12T00:26:37;0.70;1.00
11650;DHT22;5881;48.522;7.682;2023-03-12T00:29:02;0.60;1.00
11650;DHT22;5881;48.522;7.682;2023-03-12T00:31:30;0.60;1.00
11650;DHT22;5881;48.522;7.682;2023-03-12T00:33:58;0.40;1.00
11650;DHT22;5881;48.522;7.682;2023-03-12T00:36:26;0.30;1.00
11650;DHT22;5881;48.522;7.682;2023-03-12T00:38:52;0.20;1.00
11650;DHT22;5881;48.522;7.682;2023-03-12T00:41:18;0.20;1.00
11650;DHT22;5881;48.522;7.682;2023-03-12T00:43:45;0.20;1.00
11650;DHT22;5881;48.522;7.682;2023-03-12T00:46:11;0.20;1.00
11650;DHT22;5881;48.522;7.682;2023-03-12T00:48:37;0.20;1.00
11650;DHT22;5881;48.522;7.682;2023-03-12T00:51:03;0.20;1.00
11650;DHT22;5881;48.522;7.682;2023-03-12T00:53:29;0.30;1.00
11650;DHT22;5881;48.522;7.682;2023-03-12T00:55:54;0.40;1.00
11650;DHT22;5881;48.522;7.682;2023-03-12T00:58:20;0.40;1.00
11650;DHT22;5881;48.522;7.682;2023-03-12T01:00:45;0.70;1.00
11650;DHT22;5881;48.522;7.682;2023-03-12T01:03:11;0.70;1.00
11650;DHT22;5881;48.522;7.682;2023-03-12T01:05:37;0.80;1.00
11650;DHT22;5881;48.522;7.682;2023-03-12T01:08:06;0.80;1.00
11650;DHT22;5881;48.522;7.682;2023-03-12T01:10:31;0.90;1.00
11650;DHT22;5881;48.522;7.682;2023-03-12T01:12:57;1.00;1.00
11650;DHT22;5881;48.522;7.682;2023-03-12T01:15:24;1.10;1.00
11650;DHT22;5881;48.522;7.682;2023-03-12T01:17:50;1.10;1.00
11650;DHT22;5881;48.522;7.682;2023-03-12T01:20:16;1.30;1.00
11650;DHT22;5881;48.522;7.682;2023-03-12T01:22:42;1.40;1.00
11650;DHT22;5881;48.522;7.682;2023-03-12T01:25:08;1.50;1.00
11650;DHT22;5881;48.522;7.682;2023-03-12T01:27:34;1.40;1.00
11650;DHT22;5881;48.522;7.682;2023-03-12T01:30:00;1.40;1.00
11650;DHT22;5881;48.522;7.682;2023-03-12T01:32:25;1.60;1.00
11650;DHT22;5881;48.522;7.682;2023-03-12T01:34:51;1.50;1.00
11650;DHT22;5881;48.522;7.682;2023-03-12T01:37:17;1.40;1.00
11650;DHT22;5881;48.522;7.682;2023-03-12T01:39:42;1.70;1.00
11650;DHT22;5881;48.522;7.682;2023-03-12T01:42:08;1.40;1.00
11650;DHT22;5881;48.522;7.682;2023-03-12T01:47:18;1.40;1.00
11650;DHT22;5881;48.522;7.682;2023-03-12T01:49:44;1.50;1.00
11650;DHT22;5881;48.522;7.682;2023-03-12T01:52:14;1.40;1.00
11650;DHT22;5881;48.522;7.682;2023-03-12T01:54:49;1.50;1.00
11650;DHT22;5881;48.522;7.682;2023-03-12T01:57:30;1.60;1.00
11650;DHT22;5881;48.522;7.682;2023-03-12T02:00:02;1.50;1.00
11650;DHT22;5881;48.522;7.682;2023-03-12T02:02:29;1.50;1.00
11650;DHT22;5881;48.522;7.682;2023-03-12T02:05:05;1.50;1.00
11650;DHT22;5881;48.522;7.682;2023-03-12T02:07:33;1.50;1.00
11650;DHT22;5881;48.522;7.682;2023-03-12T02:09:59;1.50;1.00
11650;DHT22;5881;48.522;7.682;2023-03-12T02:12:24;1.50;1.00
11650;DHT22;5881;48.522;7.682;2023-03-12T02:14:50;1.60;1.00
11650;DHT22;5881;48.522;7.682;2023-03-12T02:17:16;1.50;1.00
11650;DHT22;5881;48.522;7.682;2023-03-12T02:20:08;1.50;1.00
11650;DHT22;5881;48.522;7.682;2023-03-12T02:22:38;1.50;1.00
11650;DHT22;5881;48.522;7.682;2023-03-12T02:25:30;1.50;1.00
11650;DHT22;5881;48.522;7.682;2023-03-12T02:28:02;1.50;1.00
11650;DHT22;5881;48.522;7.682;2023-03-12T02:30:30;1.60;1.00
11650;DHT22;5881;48.522;7.682;2023-03-12T02:32:58;1.60;1.00
11650;DHT22;5881;48.522;7.682;2023-03-12T02:35:24;1.70;1.00
11650;DHT22;5881;48.522;7.682;2023-03-12T02:37:52;1.80;1.00
11650;DHT22;5881;48.522;7.682;2023-03-12T02:40:36;1.90;1.00
11650;DHT22;5881;48.522;7.682;2023-03-12T02:43:05;1.80;1.00
11650;DHT22;5881;48.522;7.682;2023-03-12T02:45:33;1.90;1.00
11650;DHT22;5881;48.522;7.682;2023-03-12T02:48:01;2.00;1.00
11650;DHT22;5881;48.522;7.682;2023-03-12T02:50:27;2.60;1.00
11650;DHT22;5881;48.522;7.682;2023-03-12T02:52:52;2.10;1.00
11650;DHT22;5881;48.522;7.682;2023-03-12T02:55:18;2.20;1.00
11650;DHT22;5881;48.522;7.682;2023-03-12T02:57:44;2.20;1.00
11650;DHT22;5881;48.522;7.682;2023-03-12T03:00:11;2.20;1.00
11650;DHT22;5881;48.522;7.682;2023-03-12T03:02:40;2.40;1.00
11650;DHT22;5881;48.522;7.682;2023-03-12T03:05:07;2.40;1.00
11650;DHT22;5881;48.522;7.682;2023-03-12T03:07:32;2.40;1.00
11650;DHT22;5881;48.522;7.682;2023-03-12T03:09:58;2.40;1.00
11650;DHT22;5881;48.522;7.682;2023-03-12T03:12:29;2.30;1.00
11650;DHT22;5881;48.522;7.682;2023-03-12T03:14:55;2.40;1.00
11650;DHT22;5881;48.522;7.682;2023-03-12T03:17:21;2.30;1.00
11650;DHT22;5881;48.522;7.682;2023-03-12T03:19:49;2.30;1.00
11650;DHT22;5881;48.522;7.682;2023-03-12T03:22:14;2.30;1.00
11650;DHT22;5881;48.522;7.682;2023-03-12T03:24:40;2.30;1.00
11650;DHT22;5881;48.522;7.682;2023-03-12T03:27:06;2.30;1.00
11650;DHT22;5881;48.522;7.682;2023-03-12T03:29:32;2.30;1.00
11650;DHT22;5881;48.522;7.682;2023-03-12T03:31:57;2.30;1.00
11650;DHT22;5881;48.522;7.682;2023-03-12T03:34:23;2.30;1.00
11650;DHT22;5881;48.522;7.682;2023-03-12T03:36:49;2.30;1.00
11650;DHT22;5881;48.522;7.682;2023-03-12T03:39:14;2.30;1.00
11650;DHT22;5881;48.522;7.682;2023-03-12T03:41:40;2.40;1.00
11650;DHT22;5881;48.522;7.682;2023-03-12T03:44:05;2.50;1.00
11650;DHT22;5881;48.522;7.682;2023-03-12T03:46:32;2.40;1.00
11650;DHT22;5881;48.522;7.682;2023-03-12T03:49:00;2.40;1.00
11650;DHT22;5881;48.522;7.682;2023-03-12T03:51:26;2.50;1.00
11650;DHT22;5881;48.522;7.682;2023-03-12T03:53:52;2.50;1.00
11650;DHT22;5881;48.522;7.682;2023-03-12T03:56:17;2.60;1.00
11650;DHT22;5881;48.522;7.682;2023-03-12T03:58:43;2.60;1.00
11650;DHT22;5881;48.522;7.682;2023-03-12T04:01:09;2.70;1.00
11650;DHT22;5881;48.522;7.682;2023-03-12T04:03:36;2.60;1.00
11650;DHT22;5881;48.522;7.682;2023-03-12T04:06:03;2.70;1.00
11650;DHT22;5881;48.522;7.682;2023-03-12T04:08:29;2.70;1.00
11650;DHT22;5881;48.522;7.682;2023-03-12T04:10:57;2.70;1.00
11650;DHT22;5881;48.522;7.682;2023-03-12T04:13:22;2.70;1.00
11650;DHT22;5881;48.522;7.682;2023-03-12T04:15:52;2.70;1.00
11650;DHT22;5881;48.522;7.682;2023-03-12T04:18:18;2.70;1.00
11650;DHT22;5881;48.522;7.682;2023-03-12T04:20:44;2.80;1.00
11650;DHT22;5881;48.522;7.682;2023-03-12T04:23:10;2.80;1.00
11650;DHT22;5881;48.522;7.682;2023-03-12T04:25:37;2.90;1.00
11650;DHT22;5881;48.522;7.682;2023-03-12T04:28:03;2.90;1.00
11650;DHT22;5881;48.522;7.682;2023-03-12T04:30:29;2.90;1.00
11650;DHT22;5881;48.522;7.682;2023-03-12T04:32:54;2.90;1.00
11650;DHT22;5881;48.522;7.682;2023-03-12T04:35:20;2.90;1.00
11650;DHT22;5881;48.522;7.682;2023-03-12T04:37:46;2.80;1.00
11650;DHT22;5881;48.522;7.682;2023-03-12T04:40:12;2.80;1.00
11650;DHT22;5881;48.522;7.682;2023-03-12T04:42:37;2.70;1.00
11650;DHT22;5881;48.522;7.682;2023-03-12T04:45:04;2.60;1.00
11650;DHT22;5881;48.522;7.682;2023-03-12T04:47:32;2.60;4.30
11650;DHT22;5881;48.522;7.682;2023-03-12T04:49:58;2.60;61.20
11650;DHT22;5881;48.522;7.682;2023-03-12T04:52:24;2.70;97.50
11650;DHT22;5881;48.522;7.682;2023-03-12T04:54:49;2.50;99.90
11650;DHT22;5881;48.522;7.682;2023-03-12T04:57:15;2.50;99.90
11650;DHT22;5881;48.522;7.682;2023-03-12T04:59:41;2.60;99.90
11650;DHT22;5881;48.522;7.682;2023-03-12T05:02:06;2.50;99.90
11650;DHT22;5881;48.522;7.682;2023-03-12T05:04:32;2.50;99.90
11650;DHT22;5881;48.522;7.682;2023-03-12T05:06:58;2.60;99.90
11650;DHT22;5881;48.522;7.682;2023-03-12T05:09:23;2.60;99.90
11650;DHT22;5881;48.522;7.682;2023-03-12T05:11:49;2.60;99.90
11650;DHT22;5881;48.522;7.682;2023-03-12T05:14:14;2.60;99.90
11650;DHT22;5881;48.522;7.682;2023-03-12T05:16:40;2.60;99.90
11650;DHT22;5881;48.522;7.682;2023-03-12T05:19:06;2.70;99.90
11650;DHT22;5881;48.522;7.682;2023-03-12T05:21:32;2.80;99.90
11650;DHT22;5881;48.522;7.682;2023-03-12T05:23:57;2.80;99.90
11650;DHT22;5881;48.522;7.682;2023-03-12T05:26:29;2.80;99.90
11650;DHT22;5881;48.522;7.682;2023-03-12T05:28:59;2.80;99.90
11650;DHT22;5881;48.522;7.682;2023-03-12T05:31:25;2.90;99.90
11650;DHT22;5881;48.522;7.682;2023-03-12T05:33:52;2.90;99.90
11650;DHT22;5881;48.522;7.682;2023-03-12T05:36:18;2.90;99.90
11650;DHT22;5881;48.522;7.682;2023-03-12T05:38:44;2.90;99.90
11650;DHT22;5881;48.522;7.682;2023-03-12T05:41:21;2.80;99.90
11650;DHT22;5881;48.522;7.682;2023-03-12T05:43:47;2.90;99.90
11650;DHT22;5881;48.522;7.682;2023-03-12T05:46:14;2.90;99.90
11650;DHT22;5881;48.522;7.682;2023-03-12T05:48:40;3.10;99.90
11650;DHT22;5881;48.522;7.682;2023-03-12T05:51:06;3.00;99.90
11650;DHT22;5881;48.522;7.682;2023-03-12T05:53:32;3.00;99.90
11650;DHT22;5881;48.522;7.682;2023-03-12T05:56:05;3.00;99.90
11650;DHT22;5881;48.522;7.682;2023-03-12T05:58:32;3.10;99.90
11650;DHT22;5881;48.522;7.682;2023-03-12T06:00:58;3.10;99.90
11650;DHT22;5881;48.522;7.682;2023-03-12T06:03:23;3.10;99.90
11650;DHT22;5881;48.522;7.682;2023-03-12T06:05:49;3.10;1.00
11650;DHT22;5881;48.522;7.682;2023-03-12T06:08:16;3.10;1.00
11650;DHT22;5881;48.522;7.682;2023-03-12T06:10:42;3.20;1.00
11650;DHT22;5881;48.522;7.682;2023-03-12T06:13:07;3.20;1.00
11650;DHT22;5881;48.522;7.682;2023-03-12T06:15:33;3.20;1.00
11650;DHT22;5881;48.522;7.682;2023-03-12T06:17:59;3.40;1.00
11650;DHT22;5881;48.522;7.682;2023-03-12T06:20:24;3.40;1.00
11650;DHT22;5881;48.522;7.682;2023-03-12T06:22:50;3.40;1.00
11650;DHT22;5881;48.522;7.682;2023-03-12T06:25:16;3.20;1.00
11650;DHT22;5881;48.522;7.682;2023-03-12T06:27:41;3.40;1.00
11650;DHT22;5881;48.522;7.682;2023-03-12T06:30:07;3.60;99.90
11650;DHT22;5881;48.522;7.682;2023-03-12T06:32:33;3.40;1.00
11650;DHT22;5881;48.522;7.682;2023-03-12T06:34:59;3.70;99.90
11650;DHT22;5881;48.522;7.682;2023-03-12T06:37:26;4.00;99.90
11650;DHT22;5881;48.522;7.682;2023-03-12T06:39:51;5.20;99.90
11650;DHT22;5881;48.522;7.682;2023-03-12T06:42:17;4.60;99.90
11650;DHT22;5881;48.522;7.682;2023-03-12T06:44:45;4.50;99.90
11650;DHT22;5881;48.522;7.682;2023-03-12T06:47:10;4.30;99.90
11650;DHT22;5881;48.522;7.682;2023-03-12T06:49:36;4.30;99.90
11650;DHT22;5881;48.522;7.682;2023-03-12T06:52:03;4.30;99.90
11650;DHT22;5881;48.522;7.682;2023-03-12T06:54:29;4.40;99.90
11650;DHT22;5881;48.522;7.682;2023-03-12T06:56:54;4.50;99.90
11650;DHT22;5881;48.522;7.682;2023-03-12T06:59:21;4.60;99.90
11650;DHT22;5881;48.522;7.682;2023-03-12T07:01:47;4.60;99.90
11650;DHT22;5881;48.522;7.682;2023-03-12T07:04:13;4.70;99.90
11650;DHT22;5881;48.522;7.682;2023-03-12T07:06:39;4.80;99.90
11650;DHT22;5881;48.522;7.682;2023-03-12T07:09:05;4.80;99.90
11650;DHT22;5881;48.522;7.682;2023-03-12T07:11:30;4.80;99.90
11650;DHT22;5881;48.522;7.682;2023-03-12T07:13:56;4.70;99.90
11650;DHT22;5881;48.522;7.682;2023-03-12T07:16:22;4.70;99.90
11650;DHT22;5881;48.522;7.682;2023-03-12T07:18:48;4.60;1.00
11650;DHT22;5881;48.522;7.682;2023-03-12T07:21:14;4.70;1.00
11650;DHT22;5881;48.522;7.682;2023-03-12T07:23:47;4.60;1.00
11650;DHT22;5881;48.522;7.682;2023-03-12T07:26:13;4.60;99.90
11650;DHT22;5881;48.522;7.682;2023-03-12T07:28:38;4.60;99.90
11650;DHT22;5881;48.522;7.682;2023-03-12T07:31:04;4.70;1.00
11650;DHT22;5881;48.522;7.682;2023-03-12T07:33:30;4.70;1.00
11650;DHT22;5881;48.522;7.682;2023-03-12T07:35:56;4.80;1.00
11650;DHT22;5881;48.522;7.682;2023-03-12T07:38:21;4.90;1.00
11650;DHT22;5881;48.522;7.682;2023-03-12T07:40:55;5.10;1.00
11650;DHT22;5881;48.522;7.682;2023-03-12T07:43:21;5.30;1.00
11650;DHT22;5881;48.522;7.682;2023-03-12T07:45:47;5.40;99.90
11650;DHT22;5881;48.522;7.682;2023-03-12T07:48:13;5.50;99.90
11650;DHT22;5881;48.522;7.682;2023-03-12T07:50:39;5.60;99.90
11650;DHT22;5881;48.522;7.682;2023-03-12T07:53:05;5.60;99.90
11650;DHT22;5881;48.522;7.682;2023-03-12T07:55:31;5.70;99.90
11650;DHT22;5881;48.522;7.682;2023-03-12T07:57:57;5.80;99.90
11650;DHT22;5881;48.522;7.682;2023-03-12T08:00:24;5.90;99.90
11650;DHT22;5881;48.522;7.682;2023-03-12T08:02:51;6.10;1.00
11650;DHT22;5881;48.522;7.682;2023-03-12T08:05:17;6.30;1.00
11650;DHT22;5881;48.522;7.682;2023-03-12T08:07:43;6.40;99.90
11650;DHT22;5881;48.522;7.682;2023-03-12T08:10:09;6.50;1.00
11650;DHT22;5881;48.522;7.682;2023-03-12T08:12:35;6.50;1.00
11650;DHT22;5881;48.522;7.682;2023-03-12T08:15:05;6.80;99.90
11650;DHT22;5881;48.522;7.682;2023-03-12T08:17:32;6.80;99.90
11650;DHT22;5881;48.522;7.682;2023-03-12T08:19:58;7.00;99.90
11650;DHT22;5881;48.522;7.682;2023-03-12T08:22:23;7.30;1.00
11650;DHT22;5881;48.522;7.682;2023-03-12T08:24:49;7.80;1.00
11650;DHT22;5881;48.522;7.682;2023-03-12T08:27:14;7.70;1.00
11650;DHT22;5881;48.522;7.682;2023-03-12T08:29:41;7.40;1.00
11650;DHT22;5881;48.522;7.682;2023-03-12T08:32:07;7.30;1.00
11650;DHT22;5881;48.522;7.682;2023-03-12T08:34:33;7.20;1.00
11650;DHT22;5881;48.522;7.682;2023-03-12T08:36:59;7.30;1.00
11650;DHT22;5881;48.522;7.682;2023-03-12T08:39:25;8.00;1.00
11650;DHT22;5881;48.522;7.682;2023-03-12T08:41:51;10.00;99.90
11650;DHT22;5881;48.522;7.682;2023-03-12T08:44:20;9.80;99.90
11650;DHT22;5881;48.522;7.682;2023-03-12T08:46:46;9.00;99.90
11650;DHT22;5881;48.522;7.682;2023-03-12T08:49:12;9.30;99.90
11650;DHT22;5881;48.522;7.682;2023-03-12T08:51:38;10.20;99.90
11650;DHT22;5881;48.522;7.682;2023-03-12T08:54:04;10.40;99.90
11650;DHT22;5881;48.522;7.682;2023-03-12T08:56:30;11.90;99.90
11650;DHT22;5881;48.522;7.682;2023-03-12T08:58:59;14.20;95.10
11650;DHT22;5881;48.522;7.682;2023-03-12T09:01:25;13.30;45.10
11650;DHT22;5881;48.522;7.682;2023-03-12T09:03:50;14.00;48.60
11650;DHT22;5881;48.522;7.682;2023-03-12T09:06:18;14.20;33.40
11650;DHT22;5881;48.522;7.682;2023-03-12T09:08:45;14.10;26.10
11650;DHT22;5881;48.522;7.682;2023-03-12T09:11:12;14.00;21.50
11650;DHT22;5881;48.522;7.682;2023-03-12T09:13:39;13.40;18.10
11650;DHT22;5881;48.522;7.682;2023-03-12T09:16:05;12.50;17.50
11650;DHT22;5881;48.522;7.682;2023-03-12T09:18:32;11.30;22.00
11650;DHT22;5881;48.522;7.682;2023-03-12T09:20:58;11.30;32.90
11650;DHT22;5881;48.522;7.682;2023-03-12T09:23:24;11.90;31.10
11650;DHT22;5881;48.522;7.682;2023-03-12T09:25:50;12.10;34.30
11650;DHT22;5881;48.522;7.682;2023-03-12T09:28:16;13.30;35.70
11650;DHT22;5881;48.522;7.682;2023-03-12T09:30:42;14.10;30.10
11650;DHT22;5881;48.522;7.682;2023-03-12T09:33:08;14.60;33.70
11650;DHT22;5881;48.522;7.682;2023-03-12T09:35:34;15.80;16.50
11650;DHT22;5881;48.522;7.682;2023-03-12T09:38:00;17.30;16.30
11650;DHT22;5881;48.522;7.682;2023-03-12T09:40:29;16.00;4.40
11650;DHT22;5881;48.522;7.682;2023-03-12T09:43:26;15.00;2.70
11650;DHT22;5881;48.522;7.682;2023-03-12T09:45:53;15.40;3.90
11650;DHT22;5881;48.522;7.682;2023-03-12T09:48:31;13.90;1.00
11650;DHT22;5881;48.522;7.682;2023-03-12T09:51:01;13.70;1.00
11650;DHT22;5881;48.522;7.682;2023-03-12T09:55:57;14.80;5.70
11650;DHT22;5881;48.522;7.682;2023-03-12T09:58:27;16.20;8.00
11650;DHT22;5881;48.522;7.682;2023-03-12T10:06:19;14.90;1.00
11650;DHT22;5881;48.522;7.682;2023-03-12T10:12:23;15.80;1.50
11650;DHT22;5881;48.522;7.682;2023-03-12T10:15:13;14.40;1.00
11650;DHT22;5881;48.522;7.682;2023-03-12T10:20:41;14.20;1.00
11650;DHT22;5881;48.522;7.682;2023-03-12T10:26:04;13.90;1.00
11650;DHT22;5881;48.522;7.682;2023-03-12T10:31:06;15.90;1.00
11650;DHT22;5881;48.522;7.682;2023-03-12T10:33:42;16.00;1.00
11650;DHT22;5881;48.522;7.682;2023-03-12T10:36:14;15.70;1.00
11650;DHT22;5881;48.522;7.682;2023-03-12T10:38:41;15.30;1.00
11650;DHT22;5881;48.522;7.682;2023-03-12T10:41:36;14.90;1.00
11650;DHT22;5881;48.522;7.682;2023-03-12T10:44:06;14.40;1.00
11650;DHT22;5881;48.522;7.682;2023-03-12T10:49:24;14.00;1.00
11650;DHT22;5881;48.522;7.682;2023-03-12T10:52:03;13.80;1.00
11650;DHT22;5881;48.522;7.682;2023-03-12T10:54:39;13.60;1.00
11650;DHT22;5881;48.522;7.682;2023-03-12T10:57:06;13.70;1.00
11650;DHT22;5881;48.522;7.682;2023-03-12T10:59:35;13.60;1.00
11650;DHT22;5881;48.522;7.682;2023-03-12T11:02:02;13.40;1.00
11650;DHT22;5881;48.522;7.682;2023-03-12T11:04:30;13.30;1.00
11650;DHT22;5881;48.522;7.682;2023-03-12T11:09:36;13.20;1.00
11650;DHT22;5881;48.522;7.682;2023-03-12T11:12:30;13.10;1.00
11650;DHT22;5881;48.522;7.682;2023-03-12T11:14:59;13.10;1.00
11650;DHT22;5881;48.522;7.682;2023-03-12T11:17:41;13.10;1.00
11650;DHT22;5881;48.522;7.682;2023-03-12T11:20:27;13.00;1.00
11650;DHT22;5881;48.522;7.682;2023-03-12T11:22:54;12.90;1.00
11650;DHT22;5881;48.522;7.682;2023-03-12T11:25:26;12.50;1.00
11650;DHT22;5881;48.522;7.682;2023-03-12T11:28:02;12.30;1.00
11650;DHT22;5881;48.522;7.682;2023-03-12T11:30:34;12.20;1.00
11650;DHT22;5881;48.522;7.682;2023-03-12T11:33:01;12.10;1.00
11650;DHT22;5881;48.522;7.682;2023-03-12T11:38:19;12.30;1.00
11650;DHT22;5881;48.522;7.682;2023-03-12T11:43:56;12.50;1.00
11650;DHT22;5881;48.522;7.682;2023-03-12T11:46:35;12.60;1.00
11650;DHT22;5881;48.522;7.682;2023-03-12T11:49:34;12.70;1.00
11650;DHT22;5881;48.522;7.682;2023-03-12T11:52:11;12.80;1.00
11650;DHT22;5881;48.522;7.682;2023-03-12T11:55:15;12.60;1.00
11650;DHT22;5881;48.522;7.682;2023-03-12T12:00:43;12.80;1.00
11650;DHT22;5881;48.522;7.682;2023-03-12T12:11:50;12.80;1.00
11650;DHT22;5881;48.522;7.682;2023-03-12T12:23:02;12.70;1.00
11650;DHT22;5881;48.522;7.682;2023-03-12T12:37:17;13.40;1.00
11650;DHT22;5881;48.522;7.682;2023-03-12T12:42:54;13.50;1.00
11650;DHT22;5881;48.522;7.682;2023-03-12T12:45:21;13.10;1.00
11650;DHT22;5881;48.522;7.682;2023-03-12T12:47:56;13.00;1.00
11650;DHT22;5881;48.522;7.682;2023-03-12T12:50:26;12.90;1.00
11650;DHT22;5881;48.522;7.682;2023-03-12T12:53:09;12.90;1.00
11650;DHT22;5881;48.522;7.682;2023-03-12T13:01:24;13.10;1.00
11650;DHT22;5881;48.522;7.682;2023-03-12T13:03:50;13.10;1.00
11650;DHT22;5881;48.522;7.682;2023-03-12T13:06:15;13.30;1.00
11650;DHT22;5881;48.522;7.682;2023-03-12T13:16:35;14.30;1.00
11650;DHT22;5881;48.522;7.682;2023-03-12T13:19:34;14.60;1.00
11650;DHT22;5881;48.522;7.682;2023-03-12T13:24:50;15.30;1.00
11650;DHT22;5881;48.522;7.682;2023-03-12T13:27:31;15.50;1.00
11650;DHT22;5881;48.522;7.682;2023-03-12T13:43:13;14.60;1.00
11650;DHT22;5881;48.522;7.682;2023-03-12T13:48:19;14.50;1.00
11650;DHT22;5881;48.522;7.682;2023-03-12T13:51:03;14.40;1.00
11650;DHT22;5881;48.522;7.682;2023-03-12T13:53:36;14.20;1.00
11650;DHT22;5881;48.522;7.682;2023-03-12T13:56:11;14.20;1.00
11650;DHT22;5881;48.522;7.682;2023-03-12T13:58:53;14.30;1.00
11650;DHT22;5881;48.522;7.682;2023-03-12T14:01:22;14.20;1.00
11650;DHT22;5881;48.522;7.682;2023-03-12T14:03:56;14.40;1.00
11650;DHT22;5881;48.522;7.682;2023-03-12T14:06:25;14.30;1.00
11650;DHT22;5881;48.522;7.682;2023-03-12T14:14:40;14.60;1.00
11650;DHT22;5881;48.522;7.682;2023-03-12T14:17:23;14.60;1.00
11650;DHT22;5881;48.522;7.682;2023-03-12T14:20:10;14.40;1.00
11650;DHT22;5881;48.522;7.682;2023-03-12T14:22:37;14.50;1.00
11650;DHT22;5881;48.522;7.682;2023-03-12T14:27:47;14.50;1.00
11650;DHT22;5881;48.522;7.682;2023-03-12T14:30:22;14.50;1.00
11650;DHT22;5881;48.522;7.682;2023-03-12T14:32:52;14.60;1.00
11650;DHT22;5881;48.522;7.682;2023-03-12T14:35:22;14.50;1.00
11650;DHT22;5881;48.522;7.682;2023-03-12T14:37:59;14.60;1.00
11650;DHT22;5881;48.522;7.682;2023-03-12T14:43:30;14.50;1.00
11650;DHT22;5881;48.522;7.682;2023-03-12T14:46:02;14.50;1.00
11650;DHT22;5881;48.522;7.682;2023-03-12T14:48:31;14.40;1.00
11650;DHT22;5881;48.522;7.682;2023-03-12T14:50:58;14.30;1.00
11650;DHT22;5881;48.522;7.682;2023-03-12T14:53:33;14.30;1.00
11650;DHT22;5881;48.522;7.682;2023-03-12T14:55:59;14.20;1.00
11650;DHT22;5881;48.522;7.682;2023-03-12T14:58:25;14.10;1.00
11650;DHT22;5881;48.522;7.682;2023-03-12T15:01:03;14.10;1.00
11650;DHT22;5881;48.522;7.682;2023-03-12T15:03:35;14.20;1.00
11650;DHT22;5881;48.522;7.682;2023-03-12T15:06:03;14.10;1.00
11650;DHT22;5881;48.522;7.682;2023-03-12T15:08:30;14.00;1.00
11650;DHT22;5881;48.522;7.682;2023-03-12T15:10:58;13.90;1.00
11650;DHT22;5881;48.522;7.682;2023-03-12T15:13:25;13.90;1.00
11650;DHT22;5881;48.522;7.682;2023-03-12T15:15:53;13.90;1.00
11650;DHT22;5881;48.522;7.682;2023-03-12T15:18:27;13.80;1.00
11650;DHT22;5881;48.522;7.682;2023-03-12T15:20:54;13.80;1.00
11650;DHT22;5881;48.522;7.682;2023-03-12T15:23:23;13.80;1.00
11650;DHT22;5881;48.522;7.682;2023-03-12T15:26:29;13.80;1.00
11650;DHT22;5881;48.522;7.682;2023-03-12T15:28:59;13.90;1.00
11650;DHT22;5881;48.522;7.682;2023-03-12T15:31:26;13.90;1.00
11650;DHT22;5881;48.522;7.682;2023-03-12T15:34:04;13.90;1.00
11650;DHT22;5881;48.522;7.682;2023-03-12T15:36:32;14.00;1.00
11650;DHT22;5881;48.522;7.682;2023-03-12T15:39:04;14.00;1.00
11650;DHT22;5881;48.522;7.682;2023-03-12T15:41:45;14.10;1.00
11650;DHT22;5881;48.522;7.682;2023-03-12T15:44:21;14.10;1.00
11650;DHT22;5881;48.522;7.682;2023-03-12T15:46:51;14.00;1.00
11650;DHT22;5881;48.522;7.682;2023-03-12T15:49:30;14.10;1.00
11650;DHT22;5881;48.522;7.682;2023-03-12T15:52:05;14.00;1.00
11650;DHT22;5881;48.522;7.682;2023-03-12T15:54:32;14.00;1.00
11650;DHT22;5881;48.522;7.682;2023-03-12T15:57:21;13.90;1.00
11650;DHT22;5881;48.522;7.682;2023-03-12T16:02:59;13.90;1.00
11650;DHT22;5881;48.522;7.682;2023-03-12T16:05:31;13.90;1.00
11650;DHT22;5881;48.522;7.682;2023-03-12T16:08:00;13.80;1.00
11650;DHT22;5881;48.522;7.682;2023-03-12T16:10:27;13.80;1.00
11650;DHT22;5881;48.522;7.682;2023-03-12T16:13:00;13.70;1.00
11650;DHT22;5881;48.522;7.682;2023-03-12T16:15:35;13.70;1.00
11650;DHT22;5881;48.522;7.682;2023-03-12T16:18:02;13.60;1.00
11650;DHT22;5881;48.522;7.682;2023-03-12T16:20:28;13.60;1.00
11650;DHT22;5881;48.522;7.682;2023-03-12T16:22:53;13.60;1.00
11650;DHT22;5881;48.522;7.682;2023-03-12T16:25:19;13.60;1.00
11650;DHT22;5881;48.522;7.682;2023-03-12T16:27:55;13.60;1.00
11650;DHT22;5881;48.522;7.682;2023-03-12T16:30:30;13.60;1.00
11650;DHT22;5881;48.522;7.682;2023-03-12T16:32:57;13.60;1.00
11650;DHT22;5881;48.522;7.682;2023-03-12T16:35:23;13.60;1.00
11650;DHT22;5881;48.522;7.682;2023-03-12T16:37:49;13.50;1.00
11650;DHT22;5881;48.522;7.682;2023-03-12T16:40:17;13.50;1.00
11650;DHT22;5881;48.522;7.682;2023-03-12T16:42:45;13.50;1.00
11650;DHT22;5881;48.522;7.682;2023-03-12T16:45:14;13.40;1.00
11650;DHT22;5881;48.522;7.682;2023-03-12T16:47:41;13.40;1.00
11650;DHT22;5881;48.522;7.682;2023-03-12T16:50:25;13.30;1.00
11650;DHT22;5881;48.522;7.682;2023-03-12T16:52:51;13.30;1.00
11650;DHT22;5881;48.522;7.682;2023-03-12T16:55:18;13.30;1.00
11650;DHT22;5881;48.522;7.682;2023-03-12T16:57:50;13.10;1.00
11650;DHT22;5881;48.522;7.682;2023-03-12T17:00:20;13.20;1.00
11650;DHT22;5881;48.522;7.682;2023-03-12T17:02:47;13.00;1.00
11650;DHT22;5881;48.522;7.682;2023-03-12T17:05:13;13.00;1.00
11650;DHT22;5881;48.522;7.682;2023-03-12T17:07:39;13.10;1.00
11650;DHT22;5881;48.522;7.682;2023-03-12T17:10:07;12.90;1.00
11650;DHT22;5881;48.522;7.682;2023-03-12T17:12:37;12.90;1.00
11650;DHT22;5881;48.522;7.682;2023-03-12T17:15:07;12.90;1.00
11650;DHT22;5881;48.522;7.682;2023-03-12T17:17:33;12.80;1.00
11650;DHT22;5881;48.522;7.682;2023-03-12T17:19:58;12.90;1.00
11650;DHT22;5881;48.522;7.682;2023-03-12T17:22:25;12.80;1.00
11650;DHT22;5881;48.522;7.682;2023-03-12T17:24:52;12.60;1.00
11650;DHT22;5881;48.522;7.682;2023-03-12T17:27:18;12.80;1.00
11650;DHT22;5881;48.522;7.682;2023-03-12T17:29:43;12.60;1.00
11650;DHT22;5881;48.522;7.682;2023-03-12T17:32:09;12.70;1.00
11650;DHT22;5881;48.522;7.682;2023-03-12T17:34:35;12.60;1.00
11650;DHT22;5881;48.522;7.682;2023-03-12T17:37:01;12.50;1.00
11650;DHT22;5881;48.522;7.682;2023-03-12T17:39:27;12.50;1.00
11650;DHT22;5881;48.522;7.682;2023-03-12T17:41:52;12.50;1.00
11650;DHT22;5881;48.522;7.682;2023-03-12T17:44:18;12.50;1.00
11650;DHT22;5881;48.522;7.682;2023-03-12T17:46:44;12.40;1.00
11650;DHT22;5881;48.522;7.682;2023-03-12T17:49:09;12.30;1.00
11650;DHT22;5881;48.522;7.682;2023-03-12T17:51:35;12.50;1.00
11650;DHT22;5881;48.522;7.682;2023-03-12T17:54:01;12.40;1.00
11650;DHT22;5881;48.522;7.682;2023-03-12T17:56:26;12.20;1.00
11650;DHT22;5881;48.522;7.682;2023-03-12T17:58:52;12.10;1.00
11650;DHT22;5881;48.522;7.682;2023-03-12T18:01:18;12.20;1.00
11650;DHT22;5881;48.522;7.682;2023-03-12T18:03:43;12.20;1.00
11650;DHT22;5881;48.522;7.682;2023-03-12T18:06:09;12.20;1.00
11650;DHT22;5881;48.522;7.682;2023-03-12T18:08:35;12.10;1.00
11650;DHT22;5881;48.522;7.682;2023-03-12T18:11:01;12.00;1.00
11650;DHT22;5881;48.522;7.682;2023-03-12T18:13:28;11.90;1.00